[source: ADDS]
METAR
EDVE 010950Z 28010KT 250V310 CAVOK 06/M05 Q1021

TAF EDVE 010800Z 0109/0118 27008KT 9999 FEW035 EDDV 010950Z 25009KT 210V290 9999 SCT030 06/M01 Q1022 NOSIG

TAF EDDV 010500Z 0106/0206 23003KT CAVOK BECMG 0106/0108 26008KT ETHS 010920Z 28010KT 9999 BKN025 05/M02 Q1021 BLU BLU

TAF ETHS 010719Z 0108/0117 26012KT 9999 NSW SCT025 BKN040 ETHC 010920Z 28010KT 9999 FEW025 SCT027 06/M02 Q1022 BLU+BLU+ TEMPO BLU

TAF ETHC 010709Z 0108/0117 25010KT 9999 NSW FEW030 SCT040 EDVK 010950Z 28003KT 210V350 CAVOK 05/M06 Q1022

TAF EDVK 010800Z 0109/0118 VRB03KT CAVOK BECMG 0109/0111 30005KT
TAF
TAF EDVE 010800Z 0109/0118 27008KT 9999 FEW035

TAF EDDV 010500Z 0106/0206 23003KT CAVOK BECMG 0106/0108 26008KT

TAF ETHS 010719Z 0108/0117 26012KT 9999 NSW SCT025 BKN040

TAF ETHC 010709Z 0108/0117 25010KT 9999 NSW FEW030 SCT040

TAF EDVK 010800Z 0109/0118 VRB03KT CAVOK BECMG 0109/0111 30005KT

SR / SS: 04:50 / 17:52 UTC (EDVE 2020-04-01)
Bei der FFG ist der Betrieb zunächst bis zum 18.04.2020 (einschließlich) eingestellt. +++ Gero steht ebenfalls als Fluglehrer zur Verfügung! Vielen Dank an Gero und viel Erfolg beim Ausbilden. +++ Ilya hat die Theorieprüfung bestanden! Herzlichen Glückwunsch und weiterhin viel Erfolg für die restliche Ausbildung! +++ Hallo Felix, herzlich Willkommen bei der FFG und viel Erfolg für deine Pilotenausbildung! +++ Jens verstärkt als neuer Fluglehrer ab sofort unser FFG-Fluglehrer-Team. Glückwunsch und viel Erfolg beim Ausbilden! +++ Wir beglückwünschen Sebastian zur bestandenen PPL-Theorie-Prüfung! Weiterhin viel Erfolg bei der Ausbildung! +++ Stefan hat die praktische Prüfung bestanden! Herzlichen Glückwunsch und Always Happy Landings! +++ Ein weiteres Mitglied hat die Prüfung zum Fluglehrer gemeistert. Glückwunsch Nico und viel Erfolg beim Ausbilden! +++ Florian Hansmann ist ab sofort als Fluglehrer für die FFG tätig! Danke für das Engagement und viel Spaß mit deinen zukünftigen Schülern! +++ Willkommen im Verein Michael und viel Erfolg für deine Ausbildung! +++ Herzlich Willkommen bei der FFG Jens!

wenig -> mittel -> viel

Professionelle Piloten arbeiten mit Checkliste
Ausdrucken und abarbeiten! Vorbereitete Links helfen bei der Beschaffung der notwendigen Informationen.

Weiterlesen ...

Hier gibt es die AIP mit allen erforderlichen Karten die im Abo der FFG liegen zum Download für unsere Mitglieder.

          aerodata150     Radio38